KTPH/TPH METAR and TAF weather

Enter ICAO airport designator
Station Type Date Time Source
KTPH METAR 2022/01/27 22:56 UTC NOAA

KTPH 272256Z AUTO 29013KT 10SM CLR 11/M15 A3034 RMK AO2 SLP276 T01061150


Station Type Date Time Source
KTPH Decoded METAR 2022/01/27 22:56 UTC NOAA

TONOPAH AIRPORT, NV, United States (KTPH) 38-02N 117-05W 1652M
Jan 27, 2022 - 05:56 PM EST / 2022.01.27 2256 UTC
Wind: from the WNW (290 degrees) at 15 MPH (13 KT):0
Visibility: 10 mile(s):0
Sky conditions: clear
Temperature: 51.1 F (10.6 C)
Dew Point: 5.0 F (-15.0 C)
Relative Humidity: 14%
Pressure (altimeter): 30.34 in. Hg (1027 hPa)
ob: KTPH 272256Z AUTO 29013KT 10SM CLR 11/M15 A3034 RMK AO2 SLP276 T01061150
cycle: 23

Station Type Date Time Source
KTPH TAF 2022/01/27 18:22 UTC NOAA

TAF KTPH 271720Z 2718/2818 34010G17KT P6SM SKC
FM280300 36012KT P6SM SKC
FM281700 VRB06KT P6SM SKC

Example: see airport list